Calcasieu River — WDD9615 — position and weather

sailwx.info

Track history (hours):
 
Tides and Currents Weather Stations Pressure Air Temp Water Temp Dewpoint Dewpoint Depression Visibility Wind Speed Wind Dir Waves Ship Positions

Calcasieu River

Owner: Great Lakes Dredge & Dock Company, LLC, Oak Brook, IL. More information available from US FCC via Universal Licensing System and Coast Guard Vessel Documentation Center.

Last reported at 2017-Nov-19 18:49 UTC. Time now 2017-Nov-20 07:58 UTC.
Position N 39°43' W 075°31'.

; draft 3.3 m.

MMSI: 367313850.

Date/timePositionNaut miles runAvg speedWind from/ knotsBaromVisibWave heightAir tempDewpointWater temp
2017-Nov-19 18:49N 39°43' W 075°31'1 1.8
2017-Nov-19 18:30N 39°43' W 075°30'0 0.0
2017-Nov-19 18:00N 39°43' W 075°30'0 0.1
2017-Nov-19 17:31N 39°43' W 075°30'1 1.1
2017-Nov-19 17:00N 39°43' W 075°31'0 0.0
2017-Nov-19 16:31N 39°43' W 075°31'0 0.0
2017-Nov-19 16:01N 39°43' W 075°31'1 1.1
2017-Nov-19 15:31N 39°43' W 075°30'1 1.1
2017-Nov-19 15:00N 39°43' W 075°31'0 0.0
2017-Nov-19 14:31N 39°43' W 075°31'0 0.0
2017-Nov-19 14:01N 39°43' W 075°31'0 0.0
2017-Nov-19 13:31N 39°43' W 075°31'0 0.0
2017-Nov-19 13:01N 39°43' W 075°31'0 0.0
2017-Nov-19 12:30N 39°43' W 075°31'1 1.4
2017-Nov-19 12:00N 39°43' W 075°30'0 0.4
2017-Nov-19 11:30N 39°43' W 075°30'1 1.1
2017-Nov-19 11:00N 39°43' W 075°31'0 0.0
2017-Nov-19 10:30N 39°43' W 075°31'0 0.0
2017-Nov-19 10:01N 39°43' W 075°31'0 0.0
2017-Nov-18 21:15N 39°43' W 075°31'0 0.8
2017-Nov-18 21:01N 39°43' W 075°31'0 0.9
2017-Nov-18 20:31N 39°43' W 075°30'3 6.1
2017-Nov-18 20:01N 39°46' W 075°28'2 4.6
2017-Nov-18 19:30N 39°44' W 075°30'0 0.4
2017-Nov-18 19:01N 39°44' W 075°30'0 0.5
2017-Nov-18 18:30N 39°44' W 075°30'1 1.7
2017-Nov-18 18:00N 39°43' W 075°30'0 0.6
2017-Nov-18 17:30N 39°44' W 075°30'0 0.3
2017-Nov-18 17:01N 39°44' W 075°30'1 1.6
2017-Nov-18 16:30N 39°43' W 075°30'0 0.4
2017-Nov-18 16:01N 39°43' W 075°30'0 0.0
2017-Nov-18 15:31N 39°43' W 075°30'0 0.0
2017-Nov-18 15:00N 39°43' W 075°30'1 1.6
2017-Nov-18 14:31N 39°44' W 075°30'0 0.4
2017-Nov-18 14:01N 39°44' W 075°30'2 3.2
2017-Nov-18 13:31N 39°43' W 075°30'0 0.4
2017-Nov-18 13:00N 39°43' W 075°31'1 1.6
2017-Nov-18 12:31N 39°43' W 075°30'0 0.4
2017-Nov-18 12:01N 39°43' W 075°30'0 0.7
2017-Nov-18 11:31N 39°43' W 075°31'0 0.3
2017-Nov-18 11:01N 39°43' W 075°31'0 0.0
2017-Nov-18 10:31N 39°43' W 075°31'0 0.0
2017-Nov-18 10:00N 39°43' W 075°31'0 0.0
2017-Nov-17 21:28N 39°43' W 075°31'1 1.5
2017-Nov-17 21:01N 39°43' W 075°30'0 0.0
2017-Nov-17 20:31N 39°43' W 075°30'0 0.1
2017-Nov-17 20:01N 39°43' W 075°30'0 0.2
2017-Nov-17 19:31N 39°43' W 075°30'0 0.0
2017-Nov-17 19:00N 39°43' W 075°30'0 0.3
2017-Nov-17 18:31N 39°43' W 075°30'2 4.8
2017-Nov-17 18:00N 39°46' W 075°29'3 5.5
2017-Nov-17 17:31N 39°43' W 075°30'0 0.0
2017-Nov-17 17:01N 39°43' W 075°30'0 0.3
2017-Nov-17 16:30N 39°43' W 075°30'0 0.1
2017-Nov-17 15:58N 39°43' W 075°30'0 0.1
2017-Nov-17 15:30N 39°43' W 075°30'0 0.1
2017-Nov-17 15:00N 39°43' W 075°30'0 0.1
2017-Nov-17 14:31N 39°43' W 075°30'0 0.0
2017-Nov-17 14:00N 39°43' W 075°30'0 0.0
2017-Nov-17 13:30N 39°43' W 075°30'0 0.0
2017-Nov-17 13:01N 39°43' W 075°30'1 1.6
2017-Nov-17 12:31N 39°44' W 075°30'1 1.7
2017-Nov-17 12:00N 39°43' W 075°30'0 0.2
2017-Nov-17 11:31N 39°43' W 075°30'1 1.5
2017-Nov-17 11:01N 39°43' W 075°31'0 0.0
2017-Nov-17 10:31N 39°43' W 075°31'0 0.0
2017-Nov-17 10:00N 39°43' W 075°31'0 0.0
2017-Nov-16 19:59N 39°43' W 075°31'1 2.3
2017-Nov-16 19:30N 39°43' W 075°30'0 0.7
2017-Nov-16 19:00N 39°43' W 075°30'0 0.0
2017-Nov-16 18:30N 39°43' W 075°30'0 0.0
2017-Nov-16 18:00N 39°43' W 075°30'0 0.0
2017-Nov-16 17:30N 39°43' W 075°30'0 0.0
2017-Nov-16 17:00N 39°43' W 075°30'0 0.0
2017-Nov-16 16:30N 39°43' W 075°30'0 0.8
2017-Nov-16 16:00N 39°44' W 075°30'0 0.6
2017-Nov-16 15:31N 39°44' W 075°30'1 1.9
2017-Nov-16 15:00N 39°43' W 075°30'0 0.9
2017-Nov-16 14:30N 39°43' W 075°31'1 1.5
2017-Nov-16 14:00N 39°43' W 075°30'1 1.5
2017-Nov-16 13:30N 39°43' W 075°31'1 1.8
2017-Nov-16 13:00N 39°44' W 075°30'0 0.5
2017-Nov-16 12:30N 39°43' W 075°30'0 0.4
2017-Nov-16 12:00N 39°44' W 075°30'0 0.1
2017-Nov-16 11:30N 39°43' W 075°30'1 1.6
2017-Nov-16 11:00N 39°43' W 075°31'0 0.0
2017-Nov-16 10:30N 39°43' W 075°31'0 0.0
2017-Nov-16 10:00N 39°43' W 075°31'0 0.0
2017-Nov-15 20:31N 39°43' W 075°31'0 0.0
2017-Nov-15 20:30N 39°43' W 075°31'0 0.0
2017-Nov-15 20:00N 39°43' W 075°31'0 0.6
2017-Nov-15 19:30N 39°43' W 075°31'1 1.3
2017-Nov-15 19:00N 39°44' W 075°30'0 0.1
2017-Nov-15 18:30N 39°44' W 075°30'1 1.5
2017-Nov-15 18:01N 39°43' W 075°31'1 1.4
2017-Nov-15 17:30N 39°44' W 075°30'0 0.0
2017-Nov-15 17:00N 39°44' W 075°30'0 0.5
2017-Nov-15 16:30N 39°43' W 075°30'0 0.9
2017-Nov-15 16:00N 39°44' W 075°30'0 0.4
2017-Nov-15 15:30N 39°44' W 075°30'0 0.0
2017-Nov-15 15:00N 39°44' W 075°30'2 4.8
2017-Nov-15 14:30N 39°46' W 075°29'2 3.1
2017-Nov-15 14:00N 39°44' W 075°30'0 0.8
2017-Nov-15 13:30N 39°44' W 075°30'1 1.0
2017-Nov-15 13:00N 39°44' W 075°30'0 0.0
2017-Nov-15 12:30N 39°44' W 075°30'0 0.0
2017-Nov-15 12:00N 39°44' W 075°30'0 0.3
2017-Nov-15 11:30N 39°44' W 075°30'1 2.0
2017-Nov-15 11:00N 39°43' W 075°31'0 0.0
2017-Nov-15 10:30N 39°43' W 075°31'0 0.0
2017-Nov-15 10:00N 39°43' W 075°31'0 0.0
2017-Nov-14 19:11N 39°43' W 075°31'0 0.1
2017-Nov-14 19:01N 39°43' W 075°31'1 1.8
2017-Nov-14 18:31N 39°44' W 075°30'0 0.0
2017-Nov-14 18:00N 39°44' W 075°30'0 0.1
2017-Nov-14 17:30N 39°44' W 075°30'0 0.1
2017-Nov-14 17:00N 39°44' W 075°30'0 0.0
2017-Nov-14 16:31N 39°44' W 075°30'1 1.0
2017-Nov-14 16:00N 39°44' W 075°30'0 0.1
2017-Nov-14 15:31N 39°44' W 075°30'1 2.5
2017-Nov-14 15:00N 39°45' W 075°29'2 3.4
2017-Nov-14 14:30N 39°44' W 075°30'0 0.0
2017-Nov-14 14:00N 39°44' W 075°30'0 0.0
2017-Nov-14 13:30N 39°44' W 075°30'0 0.0
2017-Nov-14 13:00N 39°44' W 075°30'0 0.0
2017-Nov-14 12:30N 39°44' W 075°30'0 0.1
2017-Nov-14 12:00N 39°44' W 075°30'0 0.1
2017-Nov-14 11:30N 39°44' W 075°30'1 2.0
2017-Nov-14 11:01N 39°43' W 075°31'0 0.0
2017-Nov-14 10:31N 39°43' W 075°31'0 0.0
2017-Nov-14 10:00N 39°43' W 075°31'0 0.0
2017-Nov-12 19:42N 39°43' W 075°31'0 0.0
2017-Nov-12 19:30N 39°43' W 075°31'0 0.3
2017-Nov-12 19:00N 39°43' W 075°31'0 0.8
2017-Nov-12 18:30N 39°43' W 075°30'1 1.1
2017-Nov-12 18:00N 39°43' W 075°30'0 0.6
2017-Nov-12 17:30N 39°44' W 075°30'0 0.4
2017-Nov-12 17:00N 39°44' W 075°30'0 0.4
2017-Nov-12 16:30N 39°44' W 075°30'0 0.8
2017-Nov-12 16:00N 39°44' W 075°30'1 2.0
2017-Nov-12 15:30N 39°43' W 075°30'1 1.2
2017-Nov-12 15:00N 39°43' W 075°30'0 0.6
2017-Nov-12 14:30N 39°43' W 075°30'1 2.8
2017-Nov-12 14:00N 39°44' W 075°30'0 0.0
2017-Nov-12 13:30N 39°44' W 075°30'0 0.0
2017-Nov-12 13:00N 39°44' W 075°30'0 0.0
2017-Nov-12 12:30N 39°44' W 075°30'0 0.2
2017-Nov-12 12:00N 39°44' W 075°30'0 0.1
2017-Nov-12 11:30N 39°44' W 075°30'2 3.2
2017-Nov-12 11:00N 39°43' W 075°31'0 0.0
2017-Nov-12 10:30N 39°43' W 075°31'0 0.0
2017-Nov-12 10:00N 39°43' W 075°31'0 0.0
2017-Nov-11 20:18N 39°43' W 075°31'0 0.0
2017-Nov-11 20:00N 39°43' W 075°31'0 0.0
2017-Nov-11 19:30N 39°43' W 075°31'2 3.2
2017-Nov-11 19:01N 39°44' W 075°30'1 1.8
2017-Nov-11 18:30N 39°43' W 075°30'0 0.4
2017-Nov-11 18:00N 39°44' W 075°30'0 0.4
2017-Nov-11 17:31N 39°44' W 075°30'1 1.7
2017-Nov-11 17:01N 39°44' W 075°30'0 0.0
2017-Nov-11 16:31N 39°44' W 075°30'2 3.5
2017-Nov-11 16:01N 39°46' W 075°29'2 3.4
2017-Nov-11 15:31N 39°47' W 075°27'0 0.4
2017-Nov-11 15:01N 39°47' W 075°27'0 0.5
2017-Nov-11 14:30N 39°47' W 075°27'0 0.3
2017-Nov-11 14:01N 39°47' W 075°27'1 1.5
2017-Nov-11 13:31N 39°47' W 075°28'2 4.6
2017-Nov-11 13:01N 39°45' W 075°29'1 1.3
2017-Nov-11 12:31N 39°44' W 075°30'1 2.9
2017-Nov-11 12:00N 39°43' W 075°31'2 3.1
2017-Nov-11 11:30N 39°44' W 075°30'2 3.4
2017-Nov-11 11:00N 39°43' W 075°31'0 0.0
2017-Nov-11 10:30N 39°43' W 075°31'0 0.0
2017-Nov-11 10:00N 39°43' W 075°31'0 0.0
2017-Nov-10 19:10N 39°43' W 075°31'0 0.0
2017-Nov-10 19:00N 39°43' W 075°31'0 0.0
2017-Nov-10 18:30N 39°43' W 075°31'2 3.3
2017-Nov-10 18:00N 39°44' W 075°30'0 0.2
2017-Nov-10 17:30N 39°44' W 075°30'0 0.0
2017-Nov-10 17:00N 39°44' W 075°30'0 0.2
2017-Nov-10 16:30N 39°44' W 075°30'1 2.9
2017-Nov-10 16:00N 39°43' W 075°31'0 0.0
2017-Nov-10 15:30N 39°43' W 075°31'0 0.0
2017-Nov-10 15:00N 39°43' W 075°31'0 0.0
2017-Nov-10 14:30N 39°43' W 075°31'0 0.1
2017-Nov-10 14:00N 39°43' W 075°31'2 3.1
2017-Nov-10 13:30N 39°44' W 075°30'0 0.0
2017-Nov-10 13:00N 39°44' W 075°30'1 1.2
2017-Nov-10 12:30N 39°44' W 075°30'1 1.0
2017-Nov-10 12:00N 39°44' W 075°30'0 0.3
2017-Nov-10 11:30N 39°44' W 075°30'2 3.3
2017-Nov-10 11:00N 39°43' W 075°31'0 0.0
2017-Nov-10 10:30N 39°43' W 075°31'0 0.0
2017-Nov-10 10:00N 39°43' W 075°31'0 0.0
2017-Nov-09 20:01N 39°43' W 075°31'0 0.0
2017-Nov-09 20:01N 39°43' W 075°31'0 0.0
2017-Nov-09 19:31N 39°43' W 075°31'1 2.2
2017-Nov-09 18:58N 39°44' W 075°30'  
Track history (hours):
 
Tides and Currents Weather Stations Pressure Air Temp Water Temp Dewpoint Dewpoint Depression Visibility Wind Speed Wind Dir Waves Ship Positions

Calcasieu River

Owner: Great Lakes Dredge & Dock Company, LLC, Oak Brook, IL. More information available from US FCC via Universal Licensing System and Coast Guard Vessel Documentation Center.

Last reported at 2017-Nov-19 18:49 UTC. Time now 2017-Nov-20 07:58 UTC.
Position N 39°43' W 075°31'.

; draft 3.3 m.

MMSI: 367313850.

Date/timePositionNaut miles runAvg speedWind from/ knotsBaromVisibWave heightAir tempDewpointWater temp
2017-Nov-19 18:49N 39°43' W 075°31'1 1.8
2017-Nov-19 18:30N 39°43' W 075°30'0 0.0
2017-Nov-19 18:00N 39°43' W 075°30'0 0.1
2017-Nov-19 17:31N 39°43' W 075°30'1 1.1
2017-Nov-19 17:00N 39°43' W 075°31'0 0.0
2017-Nov-19 16:31N 39°43' W 075°31'0 0.0
2017-Nov-19 16:01N 39°43' W 075°31'1 1.1
2017-Nov-19 15:31N 39°43' W 075°30'1 1.1
2017-Nov-19 15:00N 39°43' W 075°31'0 0.0
2017-Nov-19 14:31N 39°43' W 075°31'0 0.0
2017-Nov-19 14:01N 39°43' W 075°31'0 0.0
2017-Nov-19 13:31N 39°43' W 075°31'0 0.0
2017-Nov-19 13:01N 39°43' W 075°31'0 0.0
2017-Nov-19 12:30N 39°43' W 075°31'1 1.4
2017-Nov-19 12:00N 39°43' W 075°30'0 0.4
2017-Nov-19 11:30N 39°43' W 075°30'1 1.1
2017-Nov-19 11:00N 39°43' W 075°31'0 0.0
2017-Nov-19 10:30N 39°43' W 075°31'0 0.0
2017-Nov-19 10:01N 39°43' W 075°31'0 0.0
2017-Nov-18 21:15N 39°43' W 075°31'0 0.8
2017-Nov-18 21:01N 39°43' W 075°31'0 0.9
2017-Nov-18 20:31N 39°43' W 075°30'3 6.1
2017-Nov-18 20:01N 39°46' W 075°28'2 4.6
2017-Nov-18 19:30N 39°44' W 075°30'0 0.4
2017-Nov-18 19:01N 39°44' W 075°30'0 0.5
2017-Nov-18 18:30N 39°44' W 075°30'1 1.7
2017-Nov-18 18:00N 39°43' W 075°30'0 0.6
2017-Nov-18 17:30N 39°44' W 075°30'0 0.3
2017-Nov-18 17:01N 39°44' W 075°30'1 1.6
2017-Nov-18 16:30N 39°43' W 075°30'0 0.4
2017-Nov-18 16:01N 39°43' W 075°30'0 0.0
2017-Nov-18 15:31N 39°43' W 075°30'0 0.0
2017-Nov-18 15:00N 39°43' W 075°30'1 1.6
2017-Nov-18 14:31N 39°44' W 075°30'0 0.4
2017-Nov-18 14:01N 39°44' W 075°30'2 3.2
2017-Nov-18 13:31N 39°43' W 075°30'0 0.4
2017-Nov-18 13:00N 39°43' W 075°31'1 1.6
2017-Nov-18 12:31N 39°43' W 075°30'0 0.4
2017-Nov-18 12:01N 39°43' W 075°30'0 0.7
2017-Nov-18 11:31N 39°43' W 075°31'0 0.3
2017-Nov-18 11:01N 39°43' W 075°31'0 0.0
2017-Nov-18 10:31N 39°43' W 075°31'0 0.0
2017-Nov-18 10:00N 39°43' W 075°31'0 0.0
2017-Nov-17 21:28N 39°43' W 075°31'1 1.5
2017-Nov-17 21:01N 39°43' W 075°30'0 0.0
2017-Nov-17 20:31N 39°43' W 075°30'0 0.1
2017-Nov-17 20:01N 39°43' W 075°30'0 0.2
2017-Nov-17 19:31N 39°43' W 075°30'0 0.0
2017-Nov-17 19:00N 39°43' W 075°30'0 0.3
2017-Nov-17 18:31N 39°43' W 075°30'2 4.8
2017-Nov-17 18:00N 39°46' W 075°29'3 5.5
2017-Nov-17 17:31N 39°43' W 075°30'0 0.0
2017-Nov-17 17:01N 39°43' W 075°30'0 0.3
2017-Nov-17 16:30N 39°43' W 075°30'0 0.1
2017-Nov-17 15:58N 39°43' W 075°30'0 0.1
2017-Nov-17 15:30N 39°43' W 075°30'0 0.1
2017-Nov-17 15:00N 39°43' W 075°30'0 0.1
2017-Nov-17 14:31N 39°43' W 075°30'0 0.0
2017-Nov-17 14:00N 39°43' W 075°30'0 0.0
2017-Nov-17 13:30N 39°43' W 075°30'0 0.0
2017-Nov-17 13:01N 39°43' W 075°30'1 1.6
2017-Nov-17 12:31N 39°44' W 075°30'1 1.7
2017-Nov-17 12:00N 39°43' W 075°30'0 0.2
2017-Nov-17 11:31N 39°43' W 075°30'1 1.5
2017-Nov-17 11:01N 39°43' W 075°31'0 0.0
2017-Nov-17 10:31N 39°43' W 075°31'0 0.0
2017-Nov-17 10:00N 39°43' W 075°31'0 0.0
2017-Nov-16 19:59N 39°43' W 075°31'1 2.3
2017-Nov-16 19:30N 39°43' W 075°30'0 0.7
2017-Nov-16 19:00N 39°43' W 075°30'0 0.0
2017-Nov-16 18:30N 39°43' W 075°30'0 0.0
2017-Nov-16 18:00N 39°43' W 075°30'0 0.0
2017-Nov-16 17:30N 39°43' W 075°30'0 0.0
2017-Nov-16 17:00N 39°43' W 075°30'0 0.0
2017-Nov-16 16:30N 39°43' W 075°30'0 0.8
2017-Nov-16 16:00N 39°44' W 075°30'0 0.6
2017-Nov-16 15:31N 39°44' W 075°30'1 1.9
2017-Nov-16 15:00N 39°43' W 075°30'0 0.9
2017-Nov-16 14:30N 39°43' W 075°31'1 1.5
2017-Nov-16 14:00N 39°43' W 075°30'1 1.5
2017-Nov-16 13:30N 39°43' W 075°31'1 1.8
2017-Nov-16 13:00N 39°44' W 075°30'0 0.5
2017-Nov-16 12:30N 39°43' W 075°30'0 0.4
2017-Nov-16 12:00N 39°44' W 075°30'0 0.1
2017-Nov-16 11:30N 39°43' W 075°30'1 1.6
2017-Nov-16 11:00N 39°43' W 075°31'0 0.0
2017-Nov-16 10:30N 39°43' W 075°31'0 0.0
2017-Nov-16 10:00N 39°43' W 075°31'0 0.0
2017-Nov-15 20:31N 39°43' W 075°31'0 0.0
2017-Nov-15 20:30N 39°43' W 075°31'0 0.0
2017-Nov-15 20:00N 39°43' W 075°31'0 0.6
2017-Nov-15 19:30N 39°43' W 075°31'1 1.3
2017-Nov-15 19:00N 39°44' W 075°30'0 0.1
2017-Nov-15 18:30N 39°44' W 075°30'1 1.5
2017-Nov-15 18:01N 39°43' W 075°31'1 1.4
2017-Nov-15 17:30N 39°44' W 075°30'0 0.0
2017-Nov-15 17:00N 39°44' W 075°30'0 0.5
2017-Nov-15 16:30N 39°43' W 075°30'0 0.9
2017-Nov-15 16:00N 39°44' W 075°30'0 0.4
2017-Nov-15 15:30N 39°44' W 075°30'0 0.0
2017-Nov-15 15:00N 39°44' W 075°30'2 4.8
2017-Nov-15 14:30N 39°46' W 075°29'2 3.1
2017-Nov-15 14:00N 39°44' W 075°30'0 0.8
2017-Nov-15 13:30N 39°44' W 075°30'1 1.0
2017-Nov-15 13:00N 39°44' W 075°30'0 0.0
2017-Nov-15 12:30N 39°44' W 075°30'0 0.0
2017-Nov-15 12:00N 39°44' W 075°30'0 0.3
2017-Nov-15 11:30N 39°44' W 075°30'1 2.0
2017-Nov-15 11:00N 39°43' W 075°31'0 0.0
2017-Nov-15 10:30N 39°43' W 075°31'0 0.0
2017-Nov-15 10:00N 39°43' W 075°31'0 0.0
2017-Nov-14 19:11N 39°43' W 075°31'0 0.1
2017-Nov-14 19:01N 39°43' W 075°31'1 1.8
2017-Nov-14 18:31N 39°44' W 075°30'0 0.0
2017-Nov-14 18:00N 39°44' W 075°30'0 0.1
2017-Nov-14 17:30N 39°44' W 075°30'0 0.1
2017-Nov-14 17:00N 39°44' W 075°30'0 0.0
2017-Nov-14 16:31N 39°44' W 075°30'1 1.0
2017-Nov-14 16:00N 39°44' W 075°30'0 0.1
2017-Nov-14 15:31N 39°44' W 075°30'1 2.5
2017-Nov-14 15:00N 39°45' W 075°29'2 3.4
2017-Nov-14 14:30N 39°44' W 075°30'0 0.0
2017-Nov-14 14:00N 39°44' W 075°30'0 0.0
2017-Nov-14 13:30N 39°44' W 075°30'0 0.0
2017-Nov-14 13:00N 39°44' W 075°30'0 0.0
2017-Nov-14 12:30N 39°44' W 075°30'0 0.1
2017-Nov-14 12:00N 39°44' W 075°30'0 0.1
2017-Nov-14 11:30N 39°44' W 075°30'1 2.0
2017-Nov-14 11:01N 39°43' W 075°31'0 0.0
2017-Nov-14 10:31N 39°43' W 075°31'0 0.0
2017-Nov-14 10:00N 39°43' W 075°31'0 0.0
2017-Nov-12 19:42N 39°43' W 075°31'0 0.0
2017-Nov-12 19:30N 39°43' W 075°31'0 0.3
2017-Nov-12 19:00N 39°43' W 075°31'0 0.8
2017-Nov-12 18:30N 39°43' W 075°30'1 1.1
2017-Nov-12 18:00N 39°43' W 075°30'0 0.6
2017-Nov-12 17:30N 39°44' W 075°30'0 0.4
2017-Nov-12 17:00N 39°44' W 075°30'0 0.4
2017-Nov-12 16:30N 39°44' W 075°30'0 0.8
2017-Nov-12 16:00N 39°44' W 075°30'1 2.0
2017-Nov-12 15:30N 39°43' W 075°30'1 1.2
2017-Nov-12 15:00N 39°43' W 075°30'0 0.6
2017-Nov-12 14:30N 39°43' W 075°30'1 2.8
2017-Nov-12 14:00N 39°44' W 075°30'0 0.0
2017-Nov-12 13:30N 39°44' W 075°30'0 0.0
2017-Nov-12 13:00N 39°44' W 075°30'0 0.0
2017-Nov-12 12:30N 39°44' W 075°30'0 0.2
2017-Nov-12 12:00N 39°44' W 075°30'0 0.1
2017-Nov-12 11:30N 39°44' W 075°30'2 3.2
2017-Nov-12 11:00N 39°43' W 075°31'0 0.0
2017-Nov-12 10:30N 39°43' W 075°31'0 0.0
2017-Nov-12 10:00N 39°43' W 075°31'0 0.0
2017-Nov-11 20:18N 39°43' W 075°31'0 0.0
2017-Nov-11 20:00N 39°43' W 075°31'0 0.0
2017-Nov-11 19:30N 39°43' W 075°31'2 3.2
2017-Nov-11 19:01N 39°44' W 075°30'1 1.8
2017-Nov-11 18:30N 39°43' W 075°30'0 0.4
2017-Nov-11 18:00N 39°44' W 075°30'0 0.4
2017-Nov-11 17:31N 39°44' W 075°30'1 1.7
2017-Nov-11 17:01N 39°44' W 075°30'0 0.0
2017-Nov-11 16:31N 39°44' W 075°30'2 3.5
2017-Nov-11 16:01N 39°46' W 075°29'2 3.4
2017-Nov-11 15:31N 39°47' W 075°27'0 0.4
2017-Nov-11 15:01N 39°47' W 075°27'0 0.5
2017-Nov-11 14:30N 39°47' W 075°27'0 0.3
2017-Nov-11 14:01N 39°47' W 075°27'1 1.5
2017-Nov-11 13:31N 39°47' W 075°28'2 4.6
2017-Nov-11 13:01N 39°45' W 075°29'1 1.3
2017-Nov-11 12:31N 39°44' W 075°30'1 2.9
2017-Nov-11 12:00N 39°43' W 075°31'2 3.1
2017-Nov-11 11:30N 39°44' W 075°30'2 3.4
2017-Nov-11 11:00N 39°43' W 075°31'0 0.0
2017-Nov-11 10:30N 39°43' W 075°31'0 0.0
2017-Nov-11 10:00N 39°43' W 075°31'0 0.0
2017-Nov-10 19:10N 39°43' W 075°31'0 0.0
2017-Nov-10 19:00N 39°43' W 075°31'0 0.0
2017-Nov-10 18:30N 39°43' W 075°31'2 3.3
2017-Nov-10 18:00N 39°44' W 075°30'0 0.2
2017-Nov-10 17:30N 39°44' W 075°30'0 0.0
2017-Nov-10 17:00N 39°44' W 075°30'0 0.2
2017-Nov-10 16:30N 39°44' W 075°30'1 2.9
2017-Nov-10 16:00N 39°43' W 075°31'0 0.0
2017-Nov-10 15:30N 39°43' W 075°31'0 0.0
2017-Nov-10 15:00N 39°43' W 075°31'0 0.0
2017-Nov-10 14:30N 39°43' W 075°31'0 0.1
2017-Nov-10 14:00N 39°43' W 075°31'2 3.1
2017-Nov-10 13:30N 39°44' W 075°30'0 0.0
2017-Nov-10 13:00N 39°44' W 075°30'1 1.2
2017-Nov-10 12:30N 39°44' W 075°30'1 1.0
2017-Nov-10 12:00N 39°44' W 075°30'0 0.3
2017-Nov-10 11:30N 39°44' W 075°30'2 3.3
2017-Nov-10 11:00N 39°43' W 075°31'0 0.0
2017-Nov-10 10:30N 39°43' W 075°31'0 0.0
2017-Nov-10 10:00N 39°43' W 075°31'0 0.0
2017-Nov-09 20:01N 39°43' W 075°31'0 0.0
2017-Nov-09 20:01N 39°43' W 075°31'0 0.0
2017-Nov-09 19:31N 39°43' W 075°31'1 2.2
2017-Nov-09 18:58N 39°44' W 075°30'  

Dump ship's entire track history